createdAt,value
2022-07-31T00:02:46.824Z,88.01
2022-07-31T00:05:50.495Z,88.04
2022-07-31T00:08:54.170Z,88.19
2022-07-31T00:11:57.815Z,88.25
2022-07-31T00:15:01.728Z,88.22
2022-07-31T00:18:08.821Z,88.30
2022-07-31T00:21:14.127Z,88.21
2022-07-31T00:24:17.695Z,87.92
2022-07-31T00:27:21.334Z,87.99
2022-07-31T00:30:25.025Z,88.22
2022-07-31T00:33:30.076Z,88.21
2022-07-31T00:36:33.901Z,88.16
2022-07-31T00:39:38.514Z,88.18
2022-07-31T00:42:42.433Z,88.24
2022-07-31T00:45:47.026Z,88.56
2022-07-31T00:49:03.821Z,88.57
2022-07-31T00:52:08.407Z,88.28
2022-07-31T00:55:12.258Z,87.91
2022-07-31T00:58:15.995Z,88.41
2022-07-31T01:01:19.601Z,88.55
2022-07-31T01:04:26.309Z,88.69
2022-07-31T01:07:30.978Z,88.50
2022-07-31T01:10:49.636Z,88.84
2022-07-31T01:13:58.009Z,88.95
2022-07-31T01:17:04.980Z,89.05
2022-07-31T01:20:14.073Z,89.14
2022-07-31T01:23:50.145Z,89.18
2022-07-31T01:27:05.615Z,88.83
2022-07-31T01:30:11.725Z,88.49
2022-07-31T01:33:21.327Z,88.06
2022-07-31T01:36:34.690Z,88.23
2022-07-31T01:39:41.977Z,88.20
2022-07-31T01:43:08.455Z,88.08
2022-07-31T01:46:18.279Z,87.79
2022-07-31T01:49:25.085Z,87.78
2022-07-31T01:52:33.677Z,87.52
2022-07-31T01:56:01.871Z,87.51
2022-07-31T01:59:20.572Z,87.50
2022-07-31T02:02:31.167Z,87.33
2022-07-31T02:05:38.150Z,87.61
2022-07-31T02:08:45.020Z,87.54
2022-07-31T02:11:54.663Z,87.63
2022-07-31T02:14:59.619Z,87.64
2022-07-31T02:18:06.147Z,87.64
2022-07-31T02:21:10.285Z,87.91
2022-07-31T02:24:14.520Z,87.96
2022-07-31T02:27:57.308Z,88.02
2022-07-31T02:30:48.052Z,87.96
2022-07-31T02:33:54.855Z,88.08
2022-07-31T02:37:01.512Z,88.07
2022-07-31T02:40:09.056Z,88.18
2022-07-31T02:43:14.229Z,88.16
2022-07-31T02:46:19.334Z,88.21
2022-07-31T02:49:25.004Z,88.38
2022-07-31T02:52:29.795Z,88.44
2022-07-31T02:55:34.771Z,88.39
2022-07-31T02:58:41.965Z,88.38
2022-07-31T03:01:45.811Z,88.41
2022-07-31T03:04:51.419Z,88.29
2022-07-31T03:07:55.076Z,88.18
2022-07-31T03:10:58.911Z,88.31
2022-07-31T03:14:05.659Z,88.49
2022-07-31T03:17:11.546Z,88.65
2022-07-31T03:20:18.121Z,88.74
2022-07-31T03:23:24.958Z,88.44
2022-07-31T03:26:29.753Z,88.37
2022-07-31T03:29:43.202Z,88.50
2022-07-31T03:32:47.502Z,88.73
2022-07-31T03:35:53.405Z,88.99
2022-07-31T03:38:57.161Z,88.88
2022-07-31T03:42:04.028Z,89.01
2022-07-31T03:45:10.881Z,89.00
2022-07-31T03:48:15.501Z,88.95
2022-07-31T03:51:20.945Z,88.98
2022-07-31T03:54:24.610Z,89.06
2022-07-31T03:57:31.508Z,88.90
2022-07-31T04:00:38.746Z,88.64
2022-07-31T04:03:42.388Z,88.70
2022-07-31T04:06:47.355Z,88.48
2022-07-31T04:09:51.509Z,88.48
2022-07-31T04:12:55.753Z,88.70
2022-07-31T04:15:59.443Z,88.88
2022-07-31T04:19:03.035Z,88.73
2022-07-31T04:22:09.227Z,88.53
2022-07-31T04:25:13.039Z,88.64
2022-07-31T04:28:16.732Z,88.86
2022-07-31T04:31:20.375Z,88.57
2022-07-31T04:34:24.089Z,88.23
2022-07-31T04:37:29.020Z,88.02
2022-07-31T04:40:32.665Z,88.08
2022-07-31T04:43:36.299Z,87.96
2022-07-31T04:46:40.083Z,87.99
2022-07-31T04:49:43.805Z,88.24
2022-07-31T04:52:48.911Z,88.34
2022-07-31T04:56:06.423Z,88.22
2022-07-31T04:59:13.114Z,88.37
2022-07-31T05:02:16.906Z,88.30
2022-07-31T05:05:20.875Z,88.05
2022-07-31T05:08:25.895Z,87.32
2022-07-31T05:11:29.819Z,87.04
2022-07-31T05:14:33.440Z,86.81
2022-07-31T05:17:37.198Z,86.87
2022-07-31T05:20:40.855Z,86.93
2022-07-31T05:23:47.846Z,86.55
2022-07-31T05:26:51.495Z,86.85
2022-07-31T05:29:55.296Z,86.40
2022-07-31T05:32:59.486Z,86.24
2022-07-31T05:36:04.490Z,85.88
2022-07-31T05:39:09.784Z,85.61
2022-07-31T05:42:13.488Z,85.56
2022-07-31T05:45:17.092Z,85.65
2022-07-31T05:48:20.771Z,85.89
2022-07-31T05:51:24.366Z,86.02
2022-07-31T05:54:29.432Z,85.88
2022-07-31T05:57:34.335Z,85.53
2022-07-31T06:00:39.573Z,85.42
2022-07-31T06:03:51.587Z,85.27
2022-07-31T06:06:56.224Z,84.59
2022-07-31T06:10:02.559Z,84.28
2022-07-31T06:13:06.703Z,83.44
2022-07-31T06:16:14.786Z,82.74
2022-07-31T06:19:24.546Z,81.55
2022-07-31T06:22:28.541Z,81.13
2022-07-31T06:25:35.561Z,80.21
2022-07-31T06:28:47.663Z,78.97
2022-07-31T06:31:52.715Z,77.60
2022-07-31T06:34:56.364Z,76.40
2022-07-31T06:37:59.918Z,73.47
2022-07-31T06:41:04.983Z,71.11
2022-07-31T06:44:09.059Z,69.54
2022-07-31T06:47:15.981Z,68.68
2022-07-31T06:50:20.116Z,68.39
2022-07-31T06:53:23.775Z,67.29
2022-07-31T06:56:28.979Z,66.93
2022-07-31T06:59:39.925Z,67.28
2022-07-31T07:02:44.446Z,66.88
2022-07-31T07:05:48.135Z,67.27
2022-07-31T07:08:52.364Z,66.85
2022-07-31T07:11:57.430Z,66.26
2022-07-31T07:15:01.042Z,65.47
2022-07-31T07:18:04.761Z,64.39
2022-07-31T07:21:08.445Z,63.84
2022-07-31T07:24:12.952Z,63.20
2022-07-31T07:27:17.970Z,63.27
2022-07-31T07:30:25.232Z,63.90
2022-07-31T07:33:40.753Z,64.94
2022-07-31T07:36:45.662Z,64.82
2022-07-31T07:39:49.427Z,65.83
2022-07-31T07:42:54.550Z,65.26
2022-07-31T07:45:58.241Z,64.47
2022-07-31T07:49:02.823Z,64.46
2022-07-31T07:52:06.729Z,63.75
2022-07-31T07:55:12.599Z,64.09
2022-07-31T07:58:17.893Z,63.63
2022-07-31T08:01:21.528Z,63.35
2022-07-31T08:04:25.305Z,63.43
2022-07-31T08:07:42.453Z,64.29
2022-07-31T08:10:47.194Z,63.93
2022-07-31T08:13:52.355Z,64.17
2022-07-31T08:16:57.021Z,63.69
2022-07-31T08:20:01.292Z,63.87
2022-07-31T08:23:04.972Z,63.77
2022-07-31T08:26:09.554Z,64.07
2022-07-31T08:29:14.606Z,63.41
2022-07-31T08:32:19.372Z,63.56
2022-07-31T08:35:22.995Z,63.43
2022-07-31T08:38:26.742Z,63.50
2022-07-31T08:41:30.537Z,62.53
2022-07-31T08:44:37.603Z,60.95
2022-07-31T08:47:48.288Z,58.00
2022-07-31T08:50:54.801Z,57.45
2022-07-31T08:54:00.472Z,55.74
2022-07-31T08:57:05.307Z,55.11
2022-07-31T09:00:21.707Z,53.34
2022-07-31T09:03:25.752Z,52.30
2022-07-31T09:06:29.398Z,51.68
2022-07-31T09:09:50.943Z,51.66
2022-07-31T09:12:57.127Z,51.71
2022-07-31T09:16:03.727Z,51.23
2022-07-31T09:19:52.350Z,50.31
2022-07-31T09:22:33.949Z,47.74
2022-07-31T09:25:38.023Z,48.28
2022-07-31T09:28:44.926Z,46.29
2022-07-31T09:31:49.953Z,47.22
2022-07-31T09:34:53.672Z,47.70
2022-07-31T09:37:57.369Z,48.63
2022-07-31T09:41:26.806Z,47.99
2022-07-31T09:44:42.176Z,47.63
2022-07-31T09:47:48.491Z,48.76
2022-07-31T09:50:55.933Z,48.96
2022-07-31T09:53:59.744Z,49.64
2022-07-31T09:57:13.463Z,48.91
2022-07-31T10:00:17.608Z,48.64
2022-07-31T10:03:25.851Z,46.29
2022-07-31T10:06:35.952Z,46.74
2022-07-31T10:09:42.120Z,47.09
2022-07-31T10:12:52.293Z,48.03
2022-07-31T10:16:00.977Z,48.23
2022-07-31T10:19:11.574Z,47.76
2022-07-31T10:22:21.328Z,48.46
2022-07-31T10:25:29.563Z,48.77
2022-07-31T10:28:34.499Z,48.09
2022-07-31T10:31:38.916Z,49.19
2022-07-31T10:34:44.528Z,49.07
2022-07-31T10:38:00.179Z,49.41
2022-07-31T10:41:22.009Z,49.09
2022-07-31T10:44:38.730Z,49.03
2022-07-31T10:47:53.776Z,47.91
2022-07-31T10:51:07.406Z,47.40
2022-07-31T10:54:11.646Z,46.07
2022-07-31T10:57:24.228Z,46.93
2022-07-31T11:00:30.590Z,45.60
2022-07-31T11:03:41.907Z,44.63
2022-07-31T11:06:48.707Z,43.45
2022-07-31T11:09:53.167Z,43.16
2022-07-31T11:13:05.167Z,42.99
2022-07-31T11:16:08.979Z,41.62
2022-07-31T11:19:13.488Z,42.44
2022-07-31T11:22:31.454Z,43.15
2022-07-31T11:25:38.851Z,43.97
2022-07-31T11:28:45.993Z,44.38
2022-07-31T11:31:49.639Z,45.30
2022-07-31T11:34:55.266Z,44.21
2022-07-31T11:38:01.316Z,44.15
2022-07-31T11:41:06.084Z,44.86
2022-07-31T11:44:10.464Z,44.48
2022-07-31T11:47:55.991Z,45.01
2022-07-31T11:50:42.192Z,45.44
2022-07-31T11:53:56.679Z,45.13
2022-07-31T11:57:01.679Z,45.25
2022-07-31T12:00:29.132Z,45.80
2022-07-31T12:03:36.502Z,46.27
2022-07-31T12:06:40.594Z,46.29
2022-07-31T12:10:00.738Z,46.00
2022-07-31T12:13:15.612Z,46.15
2022-07-31T12:16:20.026Z,46.69
2022-07-31T12:19:29.404Z,47.34
2022-07-31T12:22:32.968Z,47.52
2022-07-31T12:25:46.973Z,46.94
2022-07-31T12:29:00.134Z,47.23
2022-07-31T12:32:05.236Z,47.18
2022-07-31T12:35:09.792Z,47.08
2022-07-31T12:38:40.798Z,47.22
2022-07-31T12:41:47.829Z,47.82
2022-07-31T12:44:53.618Z,48.79
2022-07-31T12:47:57.391Z,50.74
2022-07-31T12:51:01.529Z,51.97
2022-07-31T12:54:06.347Z,52.87
2022-07-31T12:57:11.603Z,54.36
2022-07-31T13:00:18.325Z,55.32
2022-07-31T13:03:22.082Z,55.36
2022-07-31T13:06:28.076Z,55.73
2022-07-31T13:09:32.027Z,56.79
2022-07-31T13:12:37.059Z,57.11
2022-07-31T13:15:40.782Z,57.07
2022-07-31T13:18:44.466Z,56.16
2022-07-31T13:21:50.259Z,56.34
2022-07-31T13:24:53.967Z,56.32
2022-07-31T13:27:59.136Z,56.50
2022-07-31T13:31:03.325Z,58.17
2022-07-31T13:34:07.074Z,58.90
2022-07-31T13:37:10.741Z,59.85
2022-07-31T13:40:14.847Z,61.04
2022-07-31T13:46:24.874Z,61.13
2022-07-31T13:49:32.199Z,60.96
2022-07-31T13:52:36.006Z,61.49
2022-07-31T13:55:39.875Z,62.27
2022-07-31T13:58:45.256Z,62.89
2022-07-31T14:02:04.241Z,63.94
2022-07-31T14:05:10.079Z,64.36
2022-07-31T14:08:33.108Z,65.60
2022-07-31T14:11:39.965Z,67.10
2022-07-31T14:14:44.973Z,69.00
2022-07-31T14:17:48.645Z,69.69
2022-07-31T14:20:52.847Z,70.10
2022-07-31T14:23:57.203Z,71.57
2022-07-31T14:27:00.829Z,71.72
2022-07-31T14:30:14.033Z,71.86
2022-07-31T14:33:23.948Z,71.69
2022-07-31T14:36:27.567Z,71.84
2022-07-31T14:39:31.213Z,71.60
2022-07-31T14:42:34.961Z,72.36
2022-07-31T14:45:51.707Z,72.98
2022-07-31T14:48:55.640Z,73.96
2022-07-31T14:51:59.246Z,74.68
2022-07-31T14:55:04.045Z,75.61
2022-07-31T14:58:07.988Z,76.90
2022-07-31T15:01:16.016Z,77.79
2022-07-31T15:04:19.811Z,79.05
2022-07-31T15:07:45.821Z,80.14
2022-07-31T15:10:47.252Z,80.02
2022-07-31T15:13:50.906Z,81.13
2022-07-31T15:16:56.096Z,81.32
2022-07-31T15:20:00.958Z,81.89
2022-07-31T15:23:05.290Z,81.85
2022-07-31T15:26:09.176Z,81.41
2022-07-31T15:29:12.875Z,81.82
2022-07-31T15:32:18.073Z,81.88
2022-07-31T15:35:21.888Z,82.22
2022-07-31T15:38:25.695Z,83.25
2022-07-31T15:41:29.350Z,83.91
2022-07-31T15:44:36.163Z,84.10
2022-07-31T15:47:43.227Z,84.65
2022-07-31T15:50:47.090Z,85.43
2022-07-31T15:53:50.790Z,86.44
2022-07-31T15:56:54.445Z,87.27
2022-07-31T15:59:58.171Z,88.43
2022-07-31T16:03:04.563Z,89.09
2022-07-31T16:06:08.403Z,90.22
2022-07-31T16:09:19.676Z,91.06
2022-07-31T16:12:24.063Z,91.61
2022-07-31T16:15:27.707Z,91.71
2022-07-31T16:18:33.219Z,92.30
2022-07-31T16:21:37.040Z,91.96
2022-07-31T16:24:41.861Z,92.69
2022-07-31T16:27:45.499Z,93.24
2022-07-31T16:30:49.161Z,93.29
2022-07-31T16:33:54.187Z,94.10
2022-07-31T16:36:57.853Z,94.70
2022-07-31T16:40:01.669Z,94.88
2022-07-31T16:43:48.684Z,95.14
2022-07-31T16:46:33.164Z,95.51
2022-07-31T16:49:38.744Z,95.65
2022-07-31T16:52:42.480Z,95.71
2022-07-31T16:56:00.825Z,95.98
2022-07-31T16:59:07.067Z,96.31
2022-07-31T17:02:11.503Z,96.78
2022-07-31T17:05:17.257Z,96.29
2022-07-31T17:08:20.934Z,96.77
2022-07-31T17:11:24.679Z,96.80
2022-07-31T17:14:29.269Z,96.82
2022-07-31T17:17:33.011Z,97.21
2022-07-31T17:20:39.444Z,97.43
2022-07-31T17:23:51.066Z,97.70
2022-07-31T17:26:55.351Z,97.88
2022-07-31T17:29:58.988Z,97.69
2022-07-31T17:33:02.675Z,97.78
2022-07-31T17:36:08.512Z,97.52
2022-07-31T17:39:12.392Z,97.67
2022-07-31T17:42:18.126Z,97.76
2022-07-31T17:45:26.856Z,97.11
2022-07-31T17:48:51.055Z,97.56
2022-07-31T17:51:59.831Z,97.46
2022-07-31T17:55:04.631Z,97.43
2022-07-31T17:58:08.920Z,97.75
2022-07-31T18:01:12.780Z,97.81
2022-07-31T18:04:17.078Z,97.98
2022-07-31T18:07:24.207Z,97.62
2022-07-31T18:10:51.808Z,97.67
2022-07-31T18:13:54.147Z,98.00
2022-07-31T18:16:59.192Z,98.36
2022-07-31T18:20:05.186Z,98.64
2022-07-31T18:23:10.446Z,98.61
2022-07-31T18:26:14.152Z,98.85
2022-07-31T18:29:18.890Z,98.90
2022-07-31T18:32:22.816Z,98.80
2022-07-31T18:35:26.497Z,99.09
2022-07-31T18:38:31.667Z,99.18
2022-07-31T18:41:35.998Z,99.31
2022-07-31T18:44:39.654Z,99.47
2022-07-31T18:47:43.311Z,99.46
2022-07-31T18:51:00.122Z,99.51
2022-07-31T18:54:09.019Z,99.83
2022-07-31T18:57:12.954Z,99.78
2022-07-31T19:00:17.767Z,99.79
2022-07-31T19:03:21.486Z,99.68
2022-07-31T19:06:25.067Z,99.20
2022-07-31T19:09:30.550Z,99.35
2022-07-31T19:12:34.186Z,99.43
2022-07-31T19:15:38.460Z,99.42
2022-07-31T19:18:42.463Z,99.60
2022-07-31T19:21:47.536Z,99.84
2022-07-31T19:24:52.615Z,99.95
2022-07-31T19:27:56.564Z,100.00
2022-07-31T19:31:01.124Z,100.00
2022-07-31T19:34:04.758Z,100.00
2022-07-31T19:37:09.780Z,100.00
2022-07-31T19:40:15.194Z,100.00
2022-07-31T19:43:20.156Z,99.99
2022-07-31T19:46:24.202Z,100.00
2022-07-31T19:49:27.892Z,100.00
2022-07-31T19:52:31.838Z,100.00
2022-07-31T19:55:37.749Z,100.00
2022-07-31T19:58:42.404Z,100.00
2022-07-31T20:01:46.100Z,100.00
2022-07-31T20:04:49.819Z,100.00
2022-07-31T20:07:53.496Z,100.00
2022-07-31T20:10:59.660Z,100.00
2022-07-31T20:14:03.373Z,100.00
2022-07-31T20:17:07.131Z,100.00
2022-07-31T20:20:15.380Z,100.00
2022-07-31T20:23:19.642Z,100.00
2022-07-31T20:26:25.135Z,100.00
2022-07-31T20:29:28.815Z,100.00
2022-07-31T20:32:33.152Z,100.00
2022-07-31T20:35:47.968Z,100.00
2022-07-31T20:38:53.535Z,100.00
2022-07-31T20:41:59.535Z,100.00
2022-07-31T20:45:03.177Z,100.00
2022-07-31T20:48:07.935Z,100.00
2022-07-31T20:51:16.061Z,100.00
2022-07-31T20:54:20.276Z,100.00
2022-07-31T20:57:40.376Z,100.00
2022-07-31T21:00:43.991Z,100.00
2022-07-31T21:03:48.043Z,100.00
2022-07-31T21:06:51.788Z,100.00
2022-07-31T21:09:55.362Z,100.00
2022-07-31T21:13:00.436Z,100.00
2022-07-31T21:16:04.915Z,100.00
2022-07-31T21:19:09.779Z,100.00
2022-07-31T21:22:13.966Z,100.00
2022-07-31T21:25:18.240Z,100.00
2022-07-31T21:28:25.228Z,100.00
2022-07-31T21:31:29.600Z,100.00
2022-07-31T21:34:33.990Z,100.00
2022-07-31T21:37:39.985Z,100.00
2022-07-31T21:40:45.267Z,100.00
2022-07-31T21:43:58.840Z,100.00
2022-07-31T21:47:04.388Z,100.00
2022-07-31T21:50:09.848Z,100.00
2022-07-31T21:53:14.499Z,100.00
2022-07-31T21:56:18.226Z,100.00
2022-07-31T21:59:23.399Z,100.00
2022-07-31T22:02:27.454Z,100.00
2022-07-31T22:05:48.636Z,100.00
2022-07-31T22:08:52.368Z,100.00
2022-07-31T22:12:01.277Z,100.00
2022-07-31T22:15:11.261Z,100.00
2022-07-31T22:18:19.625Z,100.00
2022-07-31T22:21:24.407Z,100.00
2022-07-31T22:24:28.631Z,100.00
2022-07-31T22:27:51.037Z,100.00
2022-07-31T22:30:58.448Z,100.00
2022-07-31T22:34:02.438Z,100.00
2022-07-31T22:37:07.651Z,100.00
2022-07-31T22:40:13.307Z,100.00
2022-07-31T22:44:10.200Z,100.00
2022-07-31T22:46:43.004Z,100.00
2022-07-31T22:49:47.214Z,100.00
2022-07-31T22:52:51.060Z,100.00
2022-07-31T22:55:55.178Z,100.00
2022-07-31T22:58:58.934Z,100.00
2022-07-31T23:02:04.700Z,100.00
2022-07-31T23:05:10.326Z,100.00
2022-07-31T23:08:13.932Z,100.00
2022-07-31T23:11:18.137Z,100.00
2022-07-31T23:14:22.062Z,100.00
2022-07-31T23:17:27.084Z,100.00
2022-07-31T23:20:30.766Z,100.00
2022-07-31T23:23:34.532Z,100.00
2022-07-31T23:26:38.272Z,100.00
2022-07-31T23:29:42.000Z,100.00
2022-07-31T23:32:46.991Z,100.00
2022-07-31T23:35:50.713Z,100.00
2022-07-31T23:38:54.422Z,100.00
2022-07-31T23:42:15.471Z,100.00
2022-07-31T23:45:19.130Z,100.00
2022-07-31T23:48:29.275Z,100.00
2022-07-31T23:51:33.816Z,100.00
2022-07-31T23:54:37.563Z,100.00
2022-07-31T23:57:41.396Z,100.00
